Time;durP1;ratioP1;P1;durP2;ratioP2;P2;SDS_P1;SDS_P2;PMS_P1;PMS_P2;Temp;Humidity;BMP_temperature;BMP_pressure;BME280_temperature;BME280_humidity;BME280_pressure;Samples;Min_cycle;Max_cycle;Signal;HPM_P1;HPM_P2
2022/08/13 00:00:12;;;;;;;;;;;24.30;39.90;;;;;;5086841;28;19924;-71
2022/08/13 00:02:43;;;;;;;;;;;24.30;40.00;;;;;;5081131;28;19939;-68
2022/08/13 00:05:10;;;;;;;;;;;24.20;40.20;;;;;;5082796;28;20498;-70
2022/08/13 00:07:37;;;;;;;;;;;24.20;40.20;;;;;;5089815;28;19954;-70
2022/08/13 00:10:04;;;;;;;;;;;24.10;40.30;;;;;;5083206;28;19946;-69
2022/08/13 00:15:22;;;;;;;;;;;24.00;40.90;;;;;;5083137;28;19931;-71
2022/08/13 00:17:49;;;;;;;;;;;24.00;40.90;;;;;;5082611;28;20023;-69
2022/08/13 00:20:17;;;;;;;;;;;23.90;41.30;;;;;;5081986;28;19967;-69
2022/08/13 00:22:43;;;;;;;;;;;24.00;41.70;;;;;;5080696;28;19940;-69
2022/08/13 00:25:11;;;;;;;;;;;23.80;41.70;;;;;;5076762;28;19936;-68
2022/08/13 00:27:38;;;;;;;;;;;23.90;41.80;;;;;;5086734;28;19924;-69
2022/08/13 00:30:07;;;;;;;;;;;23.80;41.80;;;;;;5082229;28;19925;-70
2022/08/13 00:32:37;;;;;;;;;;;23.80;42.00;;;;;;5084072;28;19924;-69
2022/08/13 00:35:04;;;;;;;;;;;23.70;42.00;;;;;;5090171;28;19924;-70
2022/08/13 00:37:31;;;;;;;;;;;23.70;42.30;;;;;;5086642;28;19928;-70
2022/08/13 00:39:57;;;;;;;;;;;23.70;42.40;;;;;;5082335;28;19931;-69
2022/08/13 00:42:25;;;;;;;;;;;23.60;42.50;;;;;;5090045;28;19924;-72
2022/08/13 00:44:52;;;;;;;;;;;23.60;42.70;;;;;;5079038;28;20392;-69
2022/08/13 00:50:05;;;;;;;;;;;23.50;42.70;;;;;;5078422;28;19931;-70
2022/08/13 00:52:32;;;;;;;;;;;23.50;42.70;;;;;;5079973;28;19931;-69
2022/08/13 00:55:00;;;;;;;;;;;23.40;42.80;;;;;;5081456;28;19927;-68
2022/08/13 00:57:28;;;;;;;;;;;23.40;42.80;;;;;;5089150;28;19928;-70
2022/08/13 00:59:55;;;;;;;;;;;23.30;42.90;;;;;;5089395;28;19932;-69
2022/08/13 01:02:22;;;;;;;;;;;23.30;43.00;;;;;;5080964;28;19924;-70
2022/08/13 01:04:49;;;;;;;;;;;23.30;42.90;;;;;;5084206;28;19924;-69
2022/08/13 01:07:18;;;;;;;;;;;23.20;42.70;;;;;;5078736;28;19931;-69
2022/08/13 01:09:44;;;;;;;;;;;23.20;43.20;;;;;;5080326;28;19995;-69
2022/08/13 01:12:13;;;;;;;;;;;23.20;43.30;;;;;;5081122;28;20140;-68
2022/08/13 01:14:40;;;;;;;;;;;23.20;43.30;;;;;;5079379;28;19956;-69
2022/08/13 01:17:07;;;;;;;;;;;23.20;43.30;;;;;;5083439;28;19928;-70
2022/08/13 01:19:34;;;;;;;;;;;23.10;43.60;;;;;;5080924;28;19971;-69
2022/08/13 01:22:03;;;;;;;;;;;23.00;43.60;;;;;;5081442;28;19932;-69
2022/08/13 01:24:30;;;;;;;;;;;23.00;43.80;;;;;;5075678;28;19924;-69
2022/08/13 01:26:57;;;;;;;;;;;23.00;44.00;;;;;;5081484;28;19925;-69
2022/08/13 01:29:25;;;;;;;;;;;22.90;44.00;;;;;;5078917;28;19924;-69
2022/08/13 01:31:52;;;;;;;;;;;22.90;44.20;;;;;;5076675;28;20329;-69
2022/08/13 01:34:19;;;;;;;;;;;22.90;44.10;;;;;;5083589;28;19967;-68
2022/08/13 01:36:46;;;;;;;;;;;22.80;44.00;;;;;;5075662;28;19928;-70
2022/08/13 01:39:14;;;;;;;;;;;22.80;44.10;;;;;;5076834;28;20510;-69
2022/08/13 01:41:41;;;;;;;;;;;22.80;44.10;;;;;;5085190;28;19924;-69
2022/08/13 01:44:08;;;;;;;;;;;22.70;44.10;;;;;;5081756;28;19932;-69
2022/08/13 01:52:01;;;;;;;;;;;22.60;44.50;;;;;;5073418;28;20295;-71
2022/08/13 01:54:30;;;;;;;;;;;22.60;44.40;;;;;;5082899;28;20392;-69
2022/08/13 01:56:59;;;;;;;;;;;22.60;44.60;;;;;;5085189;28;19924;-71
2022/08/13 01:59:25;;;;;;;;;;;22.50;44.50;;;;;;5087475;28;19924;-69
2022/08/13 02:01:53;;;;;;;;;;;22.50;44.70;;;;;;5084365;28;19932;-69
2022/08/13 02:04:21;;;;;;;;;;;22.50;44.80;;;;;;5088561;28;20481;-69
2022/08/13 02:06:48;;;;;;;;;;;22.40;44.70;;;;;;5085006;28;20368;-69
2022/08/13 02:09:15;;;;;;;;;;;22.40;44.90;;;;;;5083359;28;19925;-70
2022/08/13 02:11:42;;;;;;;;;;;22.40;45.00;;;;;;5079547;28;19924;-69
2022/08/13 02:14:11;;;;;;;;;;;22.30;44.90;;;;;;5088481;28;19924;-69
2022/08/13 02:16:38;;;;;;;;;;;22.30;45.10;;;;;;5084312;28;20300;-69
2022/08/13 02:19:06;;;;;;;;;;;22.20;45.00;;;;;;5079349;28;19935;-68
2022/08/13 02:21:33;;;;;;;;;;;22.20;45.10;;;;;;5083255;28;19924;-68
2022/08/13 02:24:03;;;;;;;;;;;22.20;45.20;;;;;;5082324;28;19935;-69
2022/08/13 02:26:31;;;;;;;;;;;22.20;45.20;;;;;;5084159;28;19974;-70
2022/08/13 02:29:00;;;;;;;;;;;22.20;45.40;;;;;;5082255;28;20039;-70
2022/08/13 02:31:28;;;;;;;;;;;22.10;45.20;;;;;;5081922;28;19932;-71
2022/08/13 02:33:55;;;;;;;;;;;22.10;45.30;;;;;;5081905;28;20018;-68
2022/08/13 02:36:23;;;;;;;;;;;22.00;45.40;;;;;;5079011;28;19932;-69
2022/08/13 02:38:54;;;;;;;;;;;22.00;45.40;;;;;;5079446;28;19971;-68
2022/08/13 02:41:40;;;;;;;;;;;21.90;45.50;;;;;;5081677;28;21571;-69
2022/08/13 02:44:10;;;;;;;;;;;21.90;45.50;;;;;;5080116;28;19932;-69
2022/08/13 02:46:37;;;;;;;;;;;21.90;45.60;;;;;;5078173;28;19964;-69
2022/08/13 02:49:03;;;;;;;;;;;21.90;45.50;;;;;;5076900;28;20283;-70
2022/08/13 02:51:30;;;;;;;;;;;21.90;45.70;;;;;;5080439;28;19946;-70
2022/08/13 02:53:59;;;;;;;;;;;21.80;45.90;;;;;;5083263;28;19971;-71
2022/08/13 02:56:26;;;;;;;;;;;21.80;45.70;;;;;;5080279;28;20403;-68
2022/08/13 02:58:52;;;;;;;;;;;21.70;45.70;;;;;;5086553;28;20475;-68
2022/08/13 03:01:20;;;;;;;;;;;21.70;46.00;;;;;;5076173;28;20301;-68
2022/08/13 03:03:47;;;;;;;;;;;21.70;45.90;;;;;;5082734;28;19932;-71
2022/08/13 03:06:14;;;;;;;;;;;21.70;46.10;;;;;;5081561;28;19928;-68
2022/08/13 03:08:40;;;;;;;;;;;21.60;46.00;;;;;;5086558;28;19943;-70
2022/08/13 03:11:07;;;;;;;;;;;21.60;46.20;;;;;;5078464;28;19986;-69
2022/08/13 03:13:35;;;;;;;;;;;21.60;46.30;;;;;;5084198;28;20296;-70
2022/08/13 03:16:02;;;;;;;;;;;21.50;46.40;;;;;;5078798;28;20340;-67
2022/08/13 03:18:31;;;;;;;;;;;21.50;46.20;;;;;;5086651;28;19931;-68
2022/08/13 03:20:58;;;;;;;;;;;21.50;46.20;;;;;;5085439;28;19928;-71
2022/08/13 03:23:24;;;;;;;;;;;21.50;46.30;;;;;;5079152;28;19924;-69
2022/08/13 03:25:51;;;;;;;;;;;21.50;46.40;;;;;;5079581;28;19928;-68
2022/08/13 03:28:18;;;;;;;;;;;21.40;46.60;;;;;;5080860;28;19936;-69
2022/08/13 03:30:44;;;;;;;;;;;21.40;46.60;;;;;;5083119;28;19935;-69
2022/08/13 03:33:13;;;;;;;;;;;21.40;46.70;;;;;;5081843;28;19924;-68
2022/08/13 03:35:41;;;;;;;;;;;21.30;46.60;;;;;;5080494;28;19990;-69
2022/08/13 03:38:08;;;;;;;;;;;21.30;46.60;;;;;;5083311;28;19932;-69
2022/08/13 03:43:19;;;;;;;;;;;21.20;46.70;;;;;;5087377;28;20398;-71
2022/08/13 03:45:46;;;;;;;;;;;21.20;46.80;;;;;;5086449;28;19928;-69
2022/08/13 03:48:13;;;;;;;;;;;21.20;46.90;;;;;;5085748;28;19923;-70
2022/08/13 03:50:41;;;;;;;;;;;21.10;47.00;;;;;;5082288;28;19974;-70
2022/08/13 03:53:08;;;;;;;;;;;21.10;47.00;;;;;;5079879;28;19951;-70
2022/08/13 03:55:37;;;;;;;;;;;21.10;47.00;;;;;;5083984;28;20590;-68
2022/08/13 03:58:05;;;;;;;;;;;21.10;46.90;;;;;;5085812;28;20018;-70
2022/08/13 04:00:32;;;;;;;;;;;21.00;47.10;;;;;;5082329;28;19928;-69
2022/08/13 04:03:00;;;;;;;;;;;21.00;47.20;;;;;;5074261;28;19928;-68
2022/08/13 04:05:28;;;;;;;;;;;21.00;47.30;;;;;;5083157;28;19924;-71
2022/08/13 04:07:56;;;;;;;;;;;20.90;47.20;;;;;;5078791;28;19997;-67
2022/08/13 04:10:22;;;;;;;;;;;20.90;47.20;;;;;;5086219;28;19928;-69
2022/08/13 04:12:49;;;;;;;;;;;20.90;47.30;;;;;;5080450;28;19928;-69
2022/08/13 04:15:16;;;;;;;;;;;20.90;47.40;;;;;;5087567;28;20423;-68
2022/08/13 04:17:42;;;;;;;;;;;20.90;47.60;;;;;;5087075;28;20399;-70
2022/08/13 04:20:10;;;;;;;;;;;20.80;47.60;;;;;;5087699;28;19924;-69
2022/08/13 04:22:38;;;;;;;;;;;20.80;47.70;;;;;;5085777;28;19943;-68
2022/08/13 04:25:07;;;;;;;;;;;20.80;47.70;;;;;;5080511;28;19982;-69
2022/08/13 04:27:34;;;;;;;;;;;20.70;47.60;;;;;;5086204;28;19924;-68
2022/08/13 04:30:02;;;;;;;;;;;20.70;47.80;;;;;;5084278;28;19924;-70
2022/08/13 04:32:28;;;;;;;;;;;20.70;47.80;;;;;;5077935;28;20443;-72
2022/08/13 04:34:55;;;;;;;;;;;20.60;47.90;;;;;;5081934;28;20436;-69
2022/08/13 04:37:22;;;;;;;;;;;20.60;48.00;;;;;;5088394;28;20114;-69
2022/08/13 04:39:51;;;;;;;;;;;20.60;48.10;;;;;;5077847;28;20722;-71
2022/08/13 04:42:19;;;;;;;;;;;20.60;48.00;;;;;;5081539;28;19983;-70
2022/08/13 04:44:47;;;;;;;;;;;20.60;48.00;;;;;;5087277;28;19932;-72
2022/08/13 04:47:14;;;;;;;;;;;20.50;48.10;;;;;;5083291;28;19925;-68
2022/08/13 04:49:41;;;;;;;;;;;20.50;48.30;;;;;;5080524;28;20354;-69
2022/08/13 04:52:07;;;;;;;;;;;20.50;48.20;;;;;;5089315;28;20384;-70
2022/08/13 04:54:34;;;;;;;;;;;20.50;48.40;;;;;;5077674;28;19920;-69
2022/08/13 04:57:00;;;;;;;;;;;20.50;48.40;;;;;;5088218;28;19928;-70
2022/08/13 04:59:28;;;;;;;;;;;20.40;48.40;;;;;;5085482;28;20299;-69
2022/08/13 05:01:55;;;;;;;;;;;20.40;48.60;;;;;;5081019;28;20388;-70
2022/08/13 05:04:22;;;;;;;;;;;20.40;48.60;;;;;;5086708;28;19924;-69
2022/08/13 05:06:49;;;;;;;;;;;20.40;48.80;;;;;;5088951;28;19924;-70
2022/08/13 05:09:15;;;;;;;;;;;20.30;48.60;;;;;;5081217;28;19931;-69
2022/08/13 05:11:42;;;;;;;;;;;20.30;48.80;;;;;;5084159;28;19924;-69
2022/08/13 05:14:08;;;;;;;;;;;20.30;48.80;;;;;;5080919;28;19924;-69
2022/08/13 05:16:37;;;;;;;;;;;20.30;48.90;;;;;;5082673;28;19958;-70
2022/08/13 05:19:04;;;;;;;;;;;20.20;48.90;;;;;;5079188;28;19924;-69
2022/08/13 05:21:32;;;;;;;;;;;20.30;48.90;;;;;;5081061;28;19924;-70
2022/08/13 05:23:59;;;;;;;;;;;20.20;48.90;;;;;;5076234;28;20015;-69
2022/08/13 05:26:28;;;;;;;;;;;20.20;49.20;;;;;;5078696;28;19924;-70
2022/08/13 05:29:04;;;;;;;;;;;20.20;49.10;;;;;;5088185;28;19932;-69
2022/08/13 05:31:31;;;;;;;;;;;20.20;49.30;;;;;;5084436;28;19931;-70
2022/08/13 05:34:03;;;;;;;;;;;20.20;49.20;;;;;;5084585;28;19924;-69
2022/08/13 05:36:31;;;;;;;;;;;20.20;49.10;;;;;;5082767;28;20402;-69
2022/08/13 05:38:58;;;;;;;;;;;20.10;49.20;;;;;;5079806;28;19965;-69
2022/08/13 05:41:25;;;;;;;;;;;20.10;49.20;;;;;;5084649;28;19924;-70
2022/08/13 05:43:52;;;;;;;;;;;20.10;49.40;;;;;;5089205;28;19932;-69
2022/08/13 05:46:19;;;;;;;;;;;20.10;49.30;;;;;;5085320;28;19931;-69
2022/08/13 05:48:56;;;;;;;;;;;20.00;49.30;;;;;;5081585;28;19964;-69
2022/08/13 05:51:25;;;;;;;;;;;20.10;49.50;;;;;;5081996;28;19924;-69
2022/08/13 05:53:54;;;;;;;;;;;20.10;49.50;;;;;;5084477;28;19928;-70
2022/08/13 05:56:21;;;;;;;;;;;20.10;49.70;;;;;;5080917;28;20428;-70
2022/08/13 05:58:48;;;;;;;;;;;20.00;49.60;;;;;;5087085;28;20013;-69
2022/08/13 06:04:00;;;;;;;;;;;20.00;49.60;;;;;;5086596;28;20335;-70
2022/08/13 06:06:29;;;;;;;;;;;20.00;49.80;;;;;;5085356;28;19924;-69
2022/08/13 06:08:59;;;;;;;;;;;20.00;49.90;;;;;;5081974;28;19924;-70
2022/08/13 06:11:26;;;;;;;;;;;20.00;49.90;;;;;;5079572;28;19935;-69
2022/08/13 06:13:53;;;;;;;;;;;19.90;49.80;;;;;;5082756;28;19924;-69
2022/08/13 06:16:21;;;;;;;;;;;20.00;49.80;;;;;;5087315;28;19935;-69
2022/08/13 06:18:48;;;;;;;;;;;19.90;49.90;;;;;;5087697;28;19932;-70
2022/08/13 06:21:16;;;;;;;;;;;19.90;49.90;;;;;;5081429;28;19960;-72
2022/08/13 06:23:45;;;;;;;;;;;19.90;50.00;;;;;;5088157;28;19924;-70
2022/08/13 06:26:12;;;;;;;;;;;19.90;49.90;;;;;;5081223;28;20423;-69
2022/08/13 06:28:40;;;;;;;;;;;19.90;49.80;;;;;;5087186;28;19954;-70
2022/08/13 06:31:07;;;;;;;;;;;20.00;50.00;;;;;;5080530;28;19928;-70
2022/08/13 06:33:35;;;;;;;;;;;19.90;49.90;;;;;;5081140;28;19925;-69
2022/08/13 06:36:04;;;;;;;;;;;19.90;49.70;;;;;;5071767;28;19924;-68
2022/08/13 06:38:31;;;;;;;;;;;19.90;49.70;;;;;;5078927;28;19924;-72
2022/08/13 06:41:00;;;;;;;;;;;19.90;49.70;;;;;;5080295;28;20431;-69
2022/08/13 06:43:27;;;;;;;;;;;19.90;49.70;;;;;;5080954;28;19975;-72
2022/08/13 06:45:55;;;;;;;;;;;19.90;49.70;;;;;;5083739;28;20549;-70
2022/08/13 06:48:22;;;;;;;;;;;20.00;49.70;;;;;;5075249;28;19935;-69
2022/08/13 06:50:50;;;;;;;;;;;20.00;49.50;;;;;;5081155;28;20328;-69
2022/08/13 06:53:17;;;;;;;;;;;20.00;49.60;;;;;;5082384;28;19947;-72
2022/08/13 06:55:44;;;;;;;;;;;20.00;49.50;;;;;;5079429;28;19924;-68
2022/08/13 06:58:12;;;;;;;;;;;20.00;49.40;;;;;;5080395;28;19924;-69
2022/08/13 07:00:39;;;;;;;;;;;20.00;49.20;;;;;;5082774;28;19924;-69
2022/08/13 07:03:06;;;;;;;;;;;20.10;49.50;;;;;;5074878;28;20395;-69
2022/08/13 07:05:35;;;;;;;;;;;20.10;49.20;;;;;;5087064;28;19964;-70
2022/08/13 07:08:04;;;;;;;;;;;20.10;49.10;;;;;;5079607;28;20003;-69
2022/08/13 07:10:30;;;;;;;;;;;20.10;49.20;;;;;;5080216;28;19924;-70
2022/08/13 07:12:59;;;;;;;;;;;20.20;49.30;;;;;;5082335;28;20304;-70
2022/08/13 07:15:27;;;;;;;;;;;20.20;49.10;;;;;;5078650;28;19967;-70
2022/08/13 07:17:55;;;;;;;;;;;20.20;49.20;;;;;;5087443;28;19932;-69
2022/08/13 07:20:22;;;;;;;;;;;20.20;49.00;;;;;;5085897;28;19943;-69
2022/08/13 07:22:48;;;;;;;;;;;20.30;49.70;;;;;;5087708;28;19928;-69
2022/08/13 07:25:16;;;;;;;;;;;20.20;49.00;;;;;;5079413;28;19924;-68
2022/08/13 07:27:44;;;;;;;;;;;20.30;49.00;;;;;;5086907;28;19924;-70
2022/08/13 07:30:14;;;;;;;;;;;20.30;49.10;;;;;;5087179;28;19964;-69
2022/08/13 07:32:42;;;;;;;;;;;20.30;48.90;;;;;;5085104;28;19951;-69
2022/08/13 07:35:09;;;;;;;;;;;20.40;49.00;;;;;;5087116;28;19931;-71
2022/08/13 07:37:36;;;;;;;;;;;20.40;49.00;;;;;;5080527;28;19936;-69
2022/08/13 07:40:04;;;;;;;;;;;20.40;49.00;;;;;;5074468;28;20034;-68
2022/08/13 07:42:32;;;;;;;;;;;20.50;49.00;;;;;;5086634;28;20307;-69
2022/08/13 07:44:59;;;;;;;;;;;20.50;49.60;;;;;;5087063;28;19932;-70
2022/08/13 07:47:26;;;;;;;;;;;20.60;49.00;;;;;;5078409;28;19928;-69
2022/08/13 07:49:55;;;;;;;;;;;20.60;49.00;;;;;;5086301;28;20296;-68
2022/08/13 07:52:21;;;;;;;;;;;20.60;49.40;;;;;;5091254;28;19924;-69
2022/08/13 07:54:48;;;;;;;;;;;20.70;48.80;;;;;;5089818;28;19928;-69
2022/08/13 07:57:15;;;;;;;;;;;20.70;48.80;;;;;;5091485;28;19924;-72
2022/08/13 07:59:42;;;;;;;;;;;20.70;48.80;;;;;;5085473;28;19925;-70
2022/08/13 08:02:09;;;;;;;;;;;20.80;48.90;;;;;;5090454;28;19931;-68
2022/08/13 08:04:37;;;;;;;;;;;20.80;48.90;;;;;;5082989;28;20057;-69
2022/08/13 08:07:05;;;;;;;;;;;20.80;49.00;;;;;;5090188;28;19930;-69
2022/08/13 08:09:31;;;;;;;;;;;20.90;49.00;;;;;;5088994;28;19924;-70
2022/08/13 08:14:43;;;;;;;;;;;21.00;49.00;;;;;;5088373;28;20028;-69
2022/08/13 08:17:11;;;;;;;;;;;21.00;48.90;;;;;;5087133;28;19928;-69
2022/08/13 08:19:38;;;;;;;;;;;21.00;48.90;;;;;;5090230;28;19924;-69
2022/08/13 08:22:07;;;;;;;;;;;21.10;48.80;;;;;;5083110;28;19928;-69
2022/08/13 08:24:34;;;;;;;;;;;21.10;48.80;;;;;;5082697;28;20464;-68
2022/08/13 08:27:01;;;;;;;;;;;21.20;48.70;;;;;;5082537;28;20407;-71
2022/08/13 08:29:28;;;;;;;;;;;21.20;48.70;;;;;;5086162;28;19924;-69
2022/08/13 08:31:55;;;;;;;;;;;21.30;48.70;;;;;;5086488;28;19935;-70
2022/08/13 08:34:21;;;;;;;;;;;21.30;48.70;;;;;;5085193;28;19935;-69
2022/08/13 08:36:48;;;;;;;;;;;21.30;48.60;;;;;;5082306;28;19924;-69
2022/08/13 08:44:45;;;;;;;;;;;21.50;48.50;;;;;;5078631;28;20399;-71
2022/08/13 08:47:12;;;;;;;;;;;21.50;48.30;;;;;;5083254;28;19925;-69
2022/08/13 08:49:39;;;;;;;;;;;21.60;48.40;;;;;;5082222;28;19924;-68
2022/08/13 08:52:06;;;;;;;;;;;21.60;48.30;;;;;;5081790;28;20427;-69
2022/08/13 08:54:36;;;;;;;;;;;21.70;48.40;;;;;;5079893;28;19935;-69
2022/08/13 08:57:04;;;;;;;;;;;21.70;48.40;;;;;;5082981;28;19935;-71
2022/08/13 08:59:32;;;;;;;;;;;21.80;48.30;;;;;;5083473;28;20015;-71
2022/08/13 09:01:59;;;;;;;;;;;21.80;48.20;;;;;;5087661;28;20348;-71
2022/08/13 09:04:28;;;;;;;;;;;21.90;48.20;;;;;;5082737;28;19928;-69
2022/08/13 09:06:56;;;;;;;;;;;22.00;48.00;;;;;;5086195;28;20032;-69
2022/08/13 09:09:23;;;;;;;;;;;22.00;48.10;;;;;;5087912;28;19989;-70
2022/08/13 09:11:55;;;;;;;;;;;22.10;47.80;;;;;;5083869;28;20388;-69
2022/08/13 09:14:24;;;;;;;;;;;22.10;47.80;;;;;;5083833;28;20304;-71
2022/08/13 09:16:50;;;;;;;;;;;22.20;48.10;;;;;;5088630;28;20266;-70
2022/08/13 09:19:17;;;;;;;;;;;22.30;47.50;;;;;;5081031;28;19935;-70
2022/08/13 09:21:44;;;;;;;;;;;22.30;47.20;;;;;;5083404;28;19977;-68
2022/08/13 09:24:15;;;;;;;;;;;22.40;47.10;;;;;;5078718;28;19932;-70
2022/08/13 09:26:43;;;;;;;;;;;22.50;47.10;;;;;;5080039;28;19928;-69
2022/08/13 09:29:12;;;;;;;;;;;22.50;46.90;;;;;;5081856;28;20514;-68
2022/08/13 09:31:42;;;;;;;;;;;22.60;47.60;;;;;;5077695;28;19939;-70
2022/08/13 09:34:08;;;;;;;;;;;22.70;46.80;;;;;;5083959;28;20557;-69
2022/08/13 09:36:36;;;;;;;;;;;22.80;46.30;;;;;;5081264;28;19925;-69
2022/08/13 09:39:03;;;;;;;;;;;22.90;46.50;;;;;;5078309;28;20025;-70
2022/08/13 09:41:33;;;;;;;;;;;22.90;46.50;;;;;;5085457;28;19924;-69
2022/08/13 09:44:00;;;;;;;;;;;23.00;46.50;;;;;;5081006;28;19928;-69
2022/08/13 09:46:29;;;;;;;;;;;23.10;45.70;;;;;;5082214;28;19928;-70
2022/08/13 09:48:56;;;;;;;;;;;23.10;45.40;;;;;;5085611;28;19930;-70
2022/08/13 09:51:24;;;;;;;;;;;23.20;45.10;;;;;;5077240;28;19956;-69
2022/08/13 09:53:52;;;;;;;;;;;23.30;45.00;;;;;;5086398;28;19947;-70
2022/08/13 09:56:21;;;;;;;;;;;23.30;45.00;;;;;;5081756;28;20018;-69
2022/08/13 09:58:50;;;;;;;;;;;23.40;44.50;;;;;;5088413;28;19976;-70
2022/08/13 10:01:17;;;;;;;;;;;23.50;44.30;;;;;;5083408;28;19982;-69
2022/08/13 10:03:48;;;;;;;;;;;23.60;44.40;;;;;;5080989;28;19924;-69
2022/08/13 10:06:18;;;;;;;;;;;23.70;44.30;;;;;;5082783;28;20350;-70
2022/08/13 10:08:46;;;;;;;;;;;23.70;45.20;;;;;;5082525;28;19931;-71
2022/08/13 10:11:13;;;;;;;;;;;23.80;44.90;;;;;;5079155;28;20032;-70
2022/08/13 10:13:39;;;;;;;;;;;23.90;44.00;;;;;;5085401;28;20010;-69
2022/08/13 10:16:06;;;;;;;;;;;24.00;43.60;;;;;;5080020;28;19928;-69
2022/08/13 10:18:32;;;;;;;;;;;24.00;43.20;;;;;;5081263;28;19935;-69
2022/08/13 10:21:00;;;;;;;;;;;24.10;43.10;;;;;;5083589;28;19924;-69
2022/08/13 10:23:27;;;;;;;;;;;24.20;42.80;;;;;;5087770;28;19935;-70
2022/08/13 10:25:53;;;;;;;;;;;24.20;42.80;;;;;;5075098;28;19932;-70
2022/08/13 10:28:22;;;;;;;;;;;24.30;43.10;;;;;;5082658;28;19928;-70
2022/08/13 10:30:50;;;;;;;;;;;24.30;42.60;;;;;;5083045;28;20395;-69
2022/08/13 10:33:16;;;;;;;;;;;24.40;42.60;;;;;;5088512;28;19924;-70
2022/08/13 10:35:44;;;;;;;;;;;24.50;42.00;;;;;;5079934;28;19948;-69
2022/08/13 10:38:16;;;;;;;;;;;24.60;41.60;;;;;;5085342;28;20015;-69
2022/08/13 10:40:43;;;;;;;;;;;24.70;41.30;;;;;;5080992;28;19932;-70
2022/08/13 10:43:10;;;;;;;;;;;24.70;41.50;;;;;;5088201;28;19968;-69
2022/08/13 10:45:37;;;;;;;;;;;24.80;41.30;;;;;;5087649;28;20345;-70
2022/08/13 10:48:08;;;;;;;;;;;24.80;40.80;;;;;;5087578;28;19924;-69
2022/08/13 10:50:37;;;;;;;;;;;24.90;40.40;;;;;;5084920;28;22590;-69
2022/08/13 10:53:04;;;;;;;;;;;24.90;41.00;;;;;;5085988;28;19970;-69
2022/08/13 10:55:33;;;;;;;;;;;24.90;40.50;;;;;;5085525;28;19924;-71
2022/08/13 10:58:03;;;;;;;;;;;25.10;41.10;;;;;;5084039;28;20003;-70
2022/08/13 11:00:30;;;;;;;;;;;25.10;41.00;;;;;;5083175;28;19934;-70
2022/08/13 11:02:57;;;;;;;;;;;25.20;40.60;;;;;;5085847;28;19946;-71
2022/08/13 11:05:25;;;;;;;;;;;25.20;39.90;;;;;;5087803;28;19995;-70
2022/08/13 11:07:53;;;;;;;;;;;25.30;39.40;;;;;;5083623;28;19936;-69
2022/08/13 11:10:20;;;;;;;;;;;25.40;39.30;;;;;;5079679;28;19928;-70
2022/08/13 11:12:51;;;;;;;;;;;25.50;39.30;;;;;;5077295;28;19932;-71
2022/08/13 11:15:20;;;;;;;;;;;25.50;39.20;;;;;;5086077;28;20022;-68
2022/08/13 11:17:48;;;;;;;;;;;25.60;38.80;;;;;;5085627;28;19962;-72
2022/08/13 11:20:17;;;;;;;;;;;25.60;38.40;;;;;;5080733;28;19924;-70
2022/08/13 11:22:43;;;;;;;;;;;25.80;38.30;;;;;;5085130;28;19924;-69
2022/08/13 11:25:10;;;;;;;;;;;25.80;38.60;;;;;;5079241;28;19931;-70
2022/08/13 11:27:37;;;;;;;;;;;25.90;38.30;;;;;;5082288;28;19928;-68
2022/08/13 11:30:06;;;;;;;;;;;26.00;38.00;;;;;;5082743;28;19932;-70
2022/08/13 11:32:32;;;;;;;;;;;26.00;38.10;;;;;;5086958;28;19935;-70
2022/08/13 11:34:59;;;;;;;;;;;26.10;38.30;;;;;;5081964;28;19925;-69
2022/08/13 11:37:25;;;;;;;;;;;26.20;37.90;;;;;;5081260;28;19927;-70
2022/08/13 11:39:52;;;;;;;;;;;26.20;37.80;;;;;;5074178;28;19939;-71
2022/08/13 11:42:18;;;;;;;;;;;26.20;38.00;;;;;;5086889;28;19947;-70
2022/08/13 11:44:45;;;;;;;;;;;26.40;38.60;;;;;;5077236;28;20343;-71
2022/08/13 11:47:13;;;;;;;;;;;26.40;38.30;;;;;;5080914;28;20291;-69
2022/08/13 11:49:39;;;;;;;;;;;26.50;37.80;;;;;;5076756;28;19924;-69
2022/08/13 11:52:07;;;;;;;;;;;26.50;37.80;;;;;;5087278;28;19931;-70
2022/08/13 11:54:34;;;;;;;;;;;26.60;37.30;;;;;;5078162;28;19932;-71
2022/08/13 11:57:01;;;;;;;;;;;26.60;37.00;;;;;;5087185;28;19924;-71
2022/08/13 11:59:27;;;;;;;;;;;26.70;37.40;;;;;;5082683;28;20445;-72
2022/08/13 12:01:54;;;;;;;;;;;26.80;36.80;;;;;;5078099;28;19928;-70
2022/08/13 12:04:22;;;;;;;;;;;26.80;36.70;;;;;;5083969;28;19928;-70
2022/08/13 12:06:48;;;;;;;;;;;26.90;36.70;;;;;;5086754;28;19924;-70
2022/08/13 12:09:16;;;;;;;;;;;27.00;37.10;;;;;;5085932;28;19931;-70
2022/08/13 12:11:42;;;;;;;;;;;27.00;36.70;;;;;;5080024;28;20276;-70
2022/08/13 12:14:09;;;;;;;;;;;27.10;36.50;;;;;;5076546;28;20019;-70
2022/08/13 12:16:35;;;;;;;;;;;27.10;36.30;;;;;;5083250;28;20307;-68
2022/08/13 12:19:02;;;;;;;;;;;27.20;36.10;;;;;;5079796;28;19924;-70
2022/08/13 12:21:32;;;;;;;;;;;27.40;36.40;;;;;;5081990;28;19925;-70
2022/08/13 12:23:58;;;;;;;;;;;27.30;36.40;;;;;;5073619;28;19951;-70
2022/08/13 12:26:25;;;;;;;;;;;27.40;36.50;;;;;;5076596;28;19925;-70
2022/08/13 12:28:51;;;;;;;;;;;27.50;36.20;;;;;;5075993;28;19937;-70
2022/08/13 12:31:18;;;;;;;;;;;27.60;36.50;;;;;;5074623;28;19924;-70
2022/08/13 12:33:45;;;;;;;;;;;27.60;35.80;;;;;;5080998;28;19924;-72
2022/08/13 12:36:12;;;;;;;;;;;27.60;35.70;;;;;;5085060;28;19978;-71
2022/08/13 12:38:40;;;;;;;;;;;27.70;35.60;;;;;;5080609;28;19931;-69
2022/08/13 12:41:07;;;;;;;;;;;27.80;35.50;;;;;;5083252;28;19939;-70
2022/08/13 12:43:33;;;;;;;;;;;27.80;35.90;;;;;;5087041;28;19928;-69
2022/08/13 12:46:00;;;;;;;;;;;27.80;35.50;;;;;;5083432;28;19939;-70
2022/08/13 12:48:29;;;;;;;;;;;27.90;35.90;;;;;;5078211;28;19928;-70
2022/08/13 12:50:56;;;;;;;;;;;28.00;36.10;;;;;;5082335;28;19956;-70
2022/08/13 12:53:22;;;;;;;;;;;28.00;36.00;;;;;;5089251;28;19928;-70
2022/08/13 12:55:50;;;;;;;;;;;28.10;35.40;;;;;;5085798;28;19924;-70
2022/08/13 12:58:17;;;;;;;;;;;28.10;35.20;;;;;;5088495;28;20657;-70
2022/08/13 13:00:45;;;;;;;;;;;28.20;35.10;;;;;;5084848;28;20007;-70
2022/08/13 13:03:12;;;;;;;;;;;28.20;34.80;;;;;;5081802;28;20414;-70
2022/08/13 13:05:39;;;;;;;;;;;28.20;35.10;;;;;;5089503;28;19935;-69
2022/08/13 13:08:14;;;;;;;;;;;28.30;34.60;;;;;;5081571;28;19928;-71
2022/08/13 13:10:40;;;;;;;;;;;28.40;34.70;;;;;;5083296;28;19931;-70
2022/08/13 13:13:08;;;;;;;;;;;28.40;34.30;;;;;;5083042;28;19998;-70
2022/08/13 13:15:35;;;;;;;;;;;28.50;36.30;;;;;;5080800;28;19928;-68
2022/08/13 13:18:01;;;;;;;;;;;28.50;35.00;;;;;;5082846;28;19924;-71
2022/08/13 13:20:28;;;;;;;;;;;28.60;35.00;;;;;;5082906;28;19936;-69
2022/08/13 13:22:54;;;;;;;;;;;28.60;34.30;;;;;;5088987;28;19955;-70
2022/08/13 13:25:22;;;;;;;;;;;28.70;34.20;;;;;;5076914;28;20724;-70
2022/08/13 13:27:49;;;;;;;;;;;28.70;34.00;;;;;;5079207;28;20336;-70
2022/08/13 13:30:17;;;;;;;;;;;28.80;33.80;;;;;;5079237;28;20732;-70
2022/08/13 13:32:46;;;;;;;;;;;28.80;33.90;;;;;;5088290;28;19928;-70
2022/08/13 13:35:13;;;;;;;;;;;28.90;34.80;;;;;;5086031;28;20411;-73
2022/08/13 13:37:43;;;;;;;;;;;29.00;34.00;;;;;;5087659;28;19932;-70
2022/08/13 13:40:11;;;;;;;;;;;29.00;34.10;;;;;;5080633;28;19975;-71
2022/08/13 13:42:37;;;;;;;;;;;29.10;33.60;;;;;;5089269;28;19935;-70
2022/08/13 13:45:04;;;;;;;;;;;29.10;33.40;;;;;;5085859;28;20384;-70
2022/08/13 13:47:33;;;;;;;;;;;29.20;33.50;;;;;;5084204;28;19924;-73
2022/08/13 13:49:59;;;;;;;;;;;29.30;33.40;;;;;;5084661;28;19931;-70
2022/08/13 13:52:26;;;;;;;;;;;29.30;33.60;;;;;;5081371;28;19920;-70
2022/08/13 13:54:53;;;;;;;;;;;29.40;33.10;;;;;;5084953;28;19924;-72
2022/08/13 13:57:19;;;;;;;;;;;29.40;33.10;;;;;;5086582;28;19936;-70
2022/08/13 13:59:46;;;;;;;;;;;29.50;33.80;;;;;;5083731;28;20403;-70
2022/08/13 14:02:13;;;;;;;;;;;29.50;33.50;;;;;;5080465;28;19924;-70
2022/08/13 14:04:41;;;;;;;;;;;29.60;33.20;;;;;;5082706;28;19967;-70
2022/08/13 14:07:08;;;;;;;;;;;29.70;32.80;;;;;;5079451;28;19928;-70
2022/08/13 14:09:35;;;;;;;;;;;29.80;32.50;;;;;;5078484;28;19940;-69
2022/08/13 14:12:02;;;;;;;;;;;29.80;33.30;;;;;;5081782;28;20359;-71
2022/08/13 14:14:28;;;;;;;;;;;29.80;32.50;;;;;;5088629;28;20399;-69
2022/08/13 14:16:55;;;;;;;;;;;29.90;32.20;;;;;;5087614;28;19943;-69
2022/08/13 14:19:22;;;;;;;;;;;30.00;32.30;;;;;;5086468;28;20312;-71
2022/08/13 14:21:51;;;;;;;;;;;30.10;32.80;;;;;;5081986;28;19924;-71
2022/08/13 14:24:18;;;;;;;;;;;30.10;32.40;;;;;;5076720;28;19943;-71
2022/08/13 14:26:45;;;;;;;;;;;30.20;32.50;;;;;;5079730;28;19967;-73
2022/08/13 14:29:12;;;;;;;;;;;30.20;32.10;;;;;;5083884;28;19924;-71
2022/08/13 14:31:38;;;;;;;;;;;30.30;32.00;;;;;;5086457;28;19924;-68
2022/08/13 14:34:07;;;;;;;;;;;30.30;32.20;;;;;;5082614;28;19928;-72
2022/08/13 14:36:34;;;;;;;;;;;30.40;32.70;;;;;;5076400;28;19940;-70
2022/08/13 14:39:04;;;;;;;;;;;30.50;32.60;;;;;;5077982;28;19939;-74
2022/08/13 14:41:30;;;;;;;;;;;30.60;32.00;;;;;;5076434;28;19928;-69